sensor_id;sensor_type;location;lat;lon;timestamp;P1;durP1;ratioP1;P2;durP2;ratioP2
17967;SDS011;9109;48.050;11.696;2022-10-31T04:47:55;10.60;;;4.13;;
17967;SDS011;9109;48.050;11.696;2022-10-31T04:51:00;7.60;;;2.60;;
17967;SDS011;9109;48.050;11.696;2022-10-31T04:54:06;12.57;;;2.30;;
17967;SDS011;9109;48.050;11.696;2022-10-31T04:57:16;8.53;;;2.50;;
17967;SDS011;9109;48.050;11.696;2022-10-31T05:00:21;10.90;;;2.90;;
17967;SDS011;9109;48.050;11.696;2022-10-31T05:06:54;11.40;;;2.87;;
17967;SDS011;9109;48.050;11.696;2022-10-31T05:10:22;15.40;;;3.10;;
17967;SDS011;9109;48.050;11.696;2022-10-31T05:17:59;4.97;;;2.07;;
17967;SDS011;9109;48.050;11.696;2022-10-31T05:21:03;4.17;;;1.67;;
17967;SDS011;9109;48.050;11.696;2022-10-31T05:24:06;3.47;;;1.90;;
17967;SDS011;9109;48.050;11.696;2022-10-31T05:27:08;9.07;;;2.40;;
17967;SDS011;9109;48.050;11.696;2022-10-31T05:30:11;9.90;;;2.10;;
17967;SDS011;9109;48.050;11.696;2022-10-31T05:33:14;5.13;;;2.10;;
17967;SDS011;9109;48.050;11.696;2022-10-31T05:36:17;8.83;;;1.93;;
17967;SDS011;9109;48.050;11.696;2022-10-31T05:39:19;7.73;;;2.13;;
17967;SDS011;9109;48.050;11.696;2022-10-31T05:42:21;6.93;;;2.57;;
17967;SDS011;9109;48.050;11.696;2022-10-31T05:45:23;7.00;;;2.13;;
17967;SDS011;9109;48.050;11.696;2022-10-31T05:48:25;13.03;;;3.00;;
17967;SDS011;9109;48.050;11.696;2022-10-31T05:51:28;8.43;;;2.27;;
17967;SDS011;9109;48.050;11.696;2022-10-31T05:54:30;6.60;;;2.30;;
17967;SDS011;9109;48.050;11.696;2022-10-31T05:57:32;10.17;;;2.43;;
17967;SDS011;9109;48.050;11.696;2022-10-31T06:00:34;9.77;;;2.70;;
17967;SDS011;9109;48.050;11.696;2022-10-31T06:03:36;5.17;;;2.27;;
17967;SDS011;9109;48.050;11.696;2022-10-31T06:06:39;9.17;;;3.27;;
17967;SDS011;9109;48.050;11.696;2022-10-31T06:09:41;10.73;;;2.63;;
17967;SDS011;9109;48.050;11.696;2022-10-31T06:12:43;16.00;;;3.73;;
17967;SDS011;9109;48.050;11.696;2022-10-31T06:15:45;17.77;;;3.07;;
17967;SDS011;9109;48.050;11.696;2022-10-31T06:18:47;7.97;;;3.27;;
17967;SDS011;9109;48.050;11.696;2022-10-31T06:21:50;14.53;;;2.47;;
17967;SDS011;9109;48.050;11.696;2022-10-31T06:24:52;11.53;;;3.40;;
17967;SDS011;9109;48.050;11.696;2022-10-31T06:27:54;11.77;;;2.90;;
17967;SDS011;9109;48.050;11.696;2022-10-31T06:30:56;11.17;;;2.90;;
17967;SDS011;9109;48.050;11.696;2022-10-31T06:33:58;16.10;;;2.70;;
17967;SDS011;9109;48.050;11.696;2022-10-31T06:37:01;7.10;;;2.50;;
17967;SDS011;9109;48.050;11.696;2022-10-31T06:40:04;10.33;;;2.97;;
17967;SDS011;9109;48.050;11.696;2022-10-31T06:43:06;9.07;;;2.40;;
17967;SDS011;9109;48.050;11.696;2022-10-31T06:46:08;5.70;;;2.63;;
17967;SDS011;9109;48.050;11.696;2022-10-31T06:49:10;8.63;;;2.50;;
17967;SDS011;9109;48.050;11.696;2022-10-31T06:52:13;5.97;;;2.17;;
17967;SDS011;9109;48.050;11.696;2022-10-31T06:55:15;9.30;;;2.33;;
17967;SDS011;9109;48.050;11.696;2022-10-31T06:58:17;12.03;;;3.00;;
17967;SDS011;9109;48.050;11.696;2022-10-31T07:01:19;8.10;;;2.30;;
17967;SDS011;9109;48.050;11.696;2022-10-31T07:04:21;11.70;;;2.37;;
17967;SDS011;9109;48.050;11.696;2022-10-31T07:07:25;6.20;;;2.77;;
17967;SDS011;9109;48.050;11.696;2022-10-31T07:10:28;9.27;;;2.87;;
17967;SDS011;9109;48.050;11.696;2022-10-31T07:13:31;6.33;;;2.57;;
17967;SDS011;9109;48.050;11.696;2022-10-31T07:16:33;11.00;;;3.37;;
17967;SDS011;9109;48.050;11.696;2022-10-31T07:19:35;9.40;;;3.13;;
17967;SDS011;9109;48.050;11.696;2022-10-31T07:22:38;13.10;;;3.30;;
17967;SDS011;9109;48.050;11.696;2022-10-31T07:25:40;7.57;;;3.03;;
17967;SDS011;9109;48.050;11.696;2022-10-31T07:28:42;11.87;;;3.07;;
17967;SDS011;9109;48.050;11.696;2022-10-31T07:31:45;11.37;;;3.60;;
17967;SDS011;9109;48.050;11.696;2022-10-31T07:34:47;5.50;;;2.60;;
17967;SDS011;9109;48.050;11.696;2022-10-31T07:37:50;13.00;;;3.13;;
17967;SDS011;9109;48.050;11.696;2022-10-31T07:40:52;11.73;;;2.60;;
17967;SDS011;9109;48.050;11.696;2022-10-31T07:43:54;5.70;;;3.30;;
17967;SDS011;9109;48.050;11.696;2022-10-31T07:46:56;9.43;;;3.10;;
17967;SDS011;9109;48.050;11.696;2022-10-31T07:49:58;12.27;;;3.10;;
17967;SDS011;9109;48.050;11.696;2022-10-31T07:53:01;14.50;;;3.10;;
17967;SDS011;9109;48.050;11.696;2022-10-31T07:56:05;7.27;;;2.73;;
17967;SDS011;9109;48.050;11.696;2022-10-31T07:59:07;7.73;;;2.83;;
17967;SDS011;9109;48.050;11.696;2022-10-31T08:02:09;10.17;;;3.20;;
17967;SDS011;9109;48.050;11.696;2022-10-31T08:05:10;12.53;;;3.00;;
17967;SDS011;9109;48.050;11.696;2022-10-31T08:08:14;15.40;;;3.20;;
17967;SDS011;9109;48.050;11.696;2022-10-31T08:11:16;11.27;;;2.97;;
17967;SDS011;9109;48.050;11.696;2022-10-31T08:14:18;11.00;;;3.40;;
17967;SDS011;9109;48.050;11.696;2022-10-31T08:17:20;19.80;;;4.70;;
17967;SDS011;9109;48.050;11.696;2022-10-31T08:20:22;6.33;;;3.07;;
17967;SDS011;9109;48.050;11.696;2022-10-31T08:23:26;11.50;;;4.63;;
17967;SDS011;9109;48.050;11.696;2022-10-31T08:26:28;14.63;;;4.03;;
17967;SDS011;9109;48.050;11.696;2022-10-31T08:29:30;18.80;;;4.23;;
17967;SDS011;9109;48.050;11.696;2022-10-31T08:32:32;23.20;;;4.20;;
17967;SDS011;9109;48.050;11.696;2022-10-31T08:35:34;20.63;;;3.80;;
17967;SDS011;9109;48.050;11.696;2022-10-31T08:38:37;11.17;;;3.87;;
17967;SDS011;9109;48.050;11.696;2022-10-31T08:41:39;12.83;;;4.40;;
17967;SDS011;9109;48.050;11.696;2022-10-31T08:44:41;15.27;;;4.27;;
17967;SDS011;9109;48.050;11.696;2022-10-31T08:47:43;16.55;;;4.82;;
17967;SDS011;9109;48.050;11.696;2022-10-31T08:50:45;14.27;;;3.97;;
17967;SDS011;9109;48.050;11.696;2022-10-31T08:53:49;21.77;;;5.73;;
17967;SDS011;9109;48.050;11.696;2022-10-31T08:56:53;16.38;;;5.40;;
17967;SDS011;9109;48.050;11.696;2022-10-31T08:59:55;20.58;;;5.25;;
17967;SDS011;9109;48.050;11.696;2022-10-31T09:02:57;23.17;;;6.00;;
17967;SDS011;9109;48.050;11.696;2022-10-31T09:06:02;19.55;;;5.13;;
17967;SDS011;9109;48.050;11.696;2022-10-31T09:09:10;16.40;;;4.53;;
17967;SDS011;9109;48.050;11.696;2022-10-31T09:12:11;19.33;;;5.82;;
17967;SDS011;9109;48.050;11.696;2022-10-31T09:15:13;17.40;;;4.75;;
17967;SDS011;9109;48.050;11.696;2022-10-31T09:18:17;20.02;;;4.28;;
17967;SDS011;9109;48.050;11.696;2022-10-31T09:21:21;13.50;;;3.83;;
17967;SDS011;9109;48.050;11.696;2022-10-31T09:24:26;19.00;;;4.57;;
17967;SDS011;9109;48.050;11.696;2022-10-31T09:27:28;12.85;;;4.07;;
17967;SDS011;9109;48.050;11.696;2022-10-31T09:30:31;11.30;;;3.70;;
17967;SDS011;9109;48.050;11.696;2022-10-31T09:33:35;11.95;;;3.15;;
17967;SDS011;9109;48.050;11.696;2022-10-31T09:36:37;12.55;;;3.13;;
17967;SDS011;9109;48.050;11.696;2022-10-31T09:39:41;12.48;;;2.50;;
17967;SDS011;9109;48.050;11.696;2022-10-31T09:42:49;17.35;;;3.03;;
17967;SDS011;9109;48.050;11.696;2022-10-31T09:45:58;14.07;;;3.45;;
17967;SDS011;9109;48.050;11.696;2022-10-31T09:49:15;16.58;;;3.28;;
17967;SDS011;9109;48.050;11.696;2022-10-31T09:52:32;11.52;;;2.78;;
17967;SDS011;9109;48.050;11.696;2022-10-31T09:55:39;9.45;;;2.90;;
17967;SDS011;9109;48.050;11.696;2022-10-31T09:58:44;11.57;;;2.47;;
17967;SDS011;9109;48.050;11.696;2022-10-31T10:01:48;12.32;;;3.50;;
17967;SDS011;9109;48.050;11.696;2022-10-31T10:04:55;16.40;;;3.30;;
17967;SDS011;9109;48.050;11.696;2022-10-31T10:08:00;20.92;;;3.25;;
17967;SDS011;9109;48.050;11.696;2022-10-31T10:11:17;11.27;;;2.67;;
17967;SDS011;9109;48.050;11.696;2022-10-31T10:14:36;18.95;;;3.50;;
17967;SDS011;9109;48.050;11.696;2022-10-31T10:17:48;6.85;;;2.78;;
17967;SDS011;9109;48.050;11.696;2022-10-31T10:21:04;12.30;;;2.97;;
17967;SDS011;9109;48.050;11.696;2022-10-31T10:24:19;12.70;;;3.15;;
17967;SDS011;9109;48.050;11.696;2022-10-31T10:27:46;17.75;;;3.25;;
17967;SDS011;9109;48.050;11.696;2022-10-31T10:30:52;22.10;;;3.45;;
17967;SDS011;9109;48.050;11.696;2022-10-31T10:34:01;12.00;;;3.20;;
17967;SDS011;9109;48.050;11.696;2022-10-31T10:37:13;12.48;;;2.70;;
17967;SDS011;9109;48.050;11.696;2022-10-31T10:40:23;12.27;;;2.88;;
17967;SDS011;9109;48.050;11.696;2022-10-31T10:43:29;13.15;;;3.00;;
17967;SDS011;9109;48.050;11.696;2022-10-31T10:46:44;16.95;;;3.22;;
17967;SDS011;9109;48.050;11.696;2022-10-31T10:50:14;13.40;;;3.22;;
17967;SDS011;9109;48.050;11.696;2022-10-31T10:53:22;15.32;;;3.20;;
17967;SDS011;9109;48.050;11.696;2022-10-31T10:56:48;18.30;;;3.95;;
17967;SDS011;9109;48.050;11.696;2022-10-31T11:00:03;9.63;;;2.63;;
17967;SDS011;9109;48.050;11.696;2022-10-31T11:03:18;13.30;;;3.78;;
17967;SDS011;9109;48.050;11.696;2022-10-31T11:06:21;13.95;;;2.90;;
17967;SDS011;9109;48.050;11.696;2022-10-31T11:09:25;13.30;;;3.10;;
17967;SDS011;9109;48.050;11.696;2022-10-31T11:12:28;14.80;;;3.13;;
17967;SDS011;9109;48.050;11.696;2022-10-31T11:15:35;12.55;;;2.63;;
17967;SDS011;9109;48.050;11.696;2022-10-31T11:18:39;6.53;;;2.38;;
17967;SDS011;9109;48.050;11.696;2022-10-31T11:21:44;12.48;;;3.00;;
17967;SDS011;9109;48.050;11.696;2022-10-31T11:24:46;11.90;;;2.90;;
17967;SDS011;9109;48.050;11.696;2022-10-31T11:27:58;13.18;;;2.67;;
17967;SDS011;9109;48.050;11.696;2022-10-31T11:31:05;10.88;;;2.75;;
17967;SDS011;9109;48.050;11.696;2022-10-31T11:34:14;16.35;;;2.35;;
17967;SDS011;9109;48.050;11.696;2022-10-31T11:37:23;17.00;;;3.83;;
17967;SDS011;9109;48.050;11.696;2022-10-31T11:40:27;11.18;;;2.85;;
17967;SDS011;9109;48.050;11.696;2022-10-31T11:43:29;11.30;;;3.28;;
17967;SDS011;9109;48.050;11.696;2022-10-31T11:46:34;16.13;;;3.40;;
17967;SDS011;9109;48.050;11.696;2022-10-31T11:49:39;9.68;;;2.60;;
17967;SDS011;9109;48.050;11.696;2022-10-31T11:52:43;7.47;;;2.55;;
17967;SDS011;9109;48.050;11.696;2022-10-31T11:55:45;14.38;;;3.17;;
17967;SDS011;9109;48.050;11.696;2022-10-31T11:58:55;8.73;;;3.05;;
17967;SDS011;9109;48.050;11.696;2022-10-31T12:01:59;16.13;;;3.25;;
17967;SDS011;9109;48.050;11.696;2022-10-31T12:05:02;12.85;;;3.40;;
17967;SDS011;9109;48.050;11.696;2022-10-31T12:08:09;14.02;;;2.75;;
17967;SDS011;9109;48.050;11.696;2022-10-31T12:11:18;12.73;;;3.13;;
17967;SDS011;9109;48.050;11.696;2022-10-31T12:14:34;15.43;;;3.83;;
17967;SDS011;9109;48.050;11.696;2022-10-31T12:17:47;13.52;;;3.28;;
17967;SDS011;9109;48.050;11.696;2022-10-31T12:20:58;14.32;;;3.22;;
17967;SDS011;9109;48.050;11.696;2022-10-31T12:28:33;15.70;;;2.88;;
17967;SDS011;9109;48.050;11.696;2022-10-31T12:31:48;16.20;;;4.13;;
17967;SDS011;9109;48.050;11.696;2022-10-31T12:35:05;12.60;;;3.25;;
17967;SDS011;9109;48.050;11.696;2022-10-31T12:41:50;14.48;;;3.53;;
17967;SDS011;9109;48.050;11.696;2022-10-31T12:45:10;11.88;;;4.15;;
17967;SDS011;9109;48.050;11.696;2022-10-31T12:52:00;24.45;;;4.68;;
17967;SDS011;9109;48.050;11.696;2022-10-31T12:55:16;12.93;;;4.20;;
17967;SDS011;9109;48.050;11.696;2022-10-31T12:58:33;18.45;;;3.45;;
17967;SDS011;9109;48.050;11.696;2022-10-31T13:01:39;12.40;;;3.67;;
17967;SDS011;9109;48.050;11.696;2022-10-31T13:04:47;15.65;;;3.60;;
17967;SDS011;9109;48.050;11.696;2022-10-31T13:07:54;11.82;;;3.72;;
17967;SDS011;9109;48.050;11.696;2022-10-31T13:11:02;12.35;;;3.58;;
17967;SDS011;9109;48.050;11.696;2022-10-31T13:14:10;11.57;;;3.63;;
17967;SDS011;9109;48.050;11.696;2022-10-31T13:17:20;7.75;;;3.13;;
17967;SDS011;9109;48.050;11.696;2022-10-31T13:20:27;16.92;;;3.67;;
17967;SDS011;9109;48.050;11.696;2022-10-31T13:23:33;16.33;;;3.17;;
17967;SDS011;9109;48.050;11.696;2022-10-31T13:26:37;13.52;;;4.18;;
17967;SDS011;9109;48.050;11.696;2022-10-31T13:29:44;22.92;;;4.22;;
17967;SDS011;9109;48.050;11.696;2022-10-31T13:32:59;14.68;;;3.67;;
17967;SDS011;9109;48.050;11.696;2022-10-31T13:36:17;28.77;;;4.22;;
17967;SDS011;9109;48.050;11.696;2022-10-31T13:39:30;16.10;;;3.72;;
17967;SDS011;9109;48.050;11.696;2022-10-31T13:42:45;13.70;;;3.85;;
17967;SDS011;9109;48.050;11.696;2022-10-31T13:45:55;17.20;;;4.53;;
17967;SDS011;9109;48.050;11.696;2022-10-31T13:48:57;15.82;;;3.58;;
17967;SDS011;9109;48.050;11.696;2022-10-31T13:52:04;20.13;;;3.72;;
17967;SDS011;9109;48.050;11.696;2022-10-31T13:58:37;10.70;;;3.58;;
17967;SDS011;9109;48.050;11.696;2022-10-31T14:01:44;18.02;;;4.95;;
17967;SDS011;9109;48.050;11.696;2022-10-31T14:04:50;13.48;;;5.22;;
17967;SDS011;9109;48.050;11.696;2022-10-31T14:07:55;19.67;;;4.82;;
17967;SDS011;9109;48.050;11.696;2022-10-31T14:11:01;16.55;;;4.50;;
17967;SDS011;9109;48.050;11.696;2022-10-31T14:14:08;18.67;;;4.40;;
17967;SDS011;9109;48.050;11.696;2022-10-31T14:17:16;17.23;;;4.95;;
17967;SDS011;9109;48.050;11.696;2022-10-31T14:20:24;18.33;;;4.45;;
17967;SDS011;9109;48.050;11.696;2022-10-31T14:23:37;15.45;;;4.75;;
17967;SDS011;9109;48.050;11.696;2022-10-31T14:26:53;21.00;;;4.93;;
17967;SDS011;9109;48.050;11.696;2022-10-31T14:30:06;22.70;;;4.90;;
17967;SDS011;9109;48.050;11.696;2022-10-31T14:33:16;24.13;;;4.85;;
17967;SDS011;9109;48.050;11.696;2022-10-31T14:36:22;16.63;;;4.63;;
17967;SDS011;9109;48.050;11.696;2022-10-31T14:39:30;15.85;;;4.22;;
17967;SDS011;9109;48.050;11.696;2022-10-31T14:42:44;18.17;;;5.20;;
17967;SDS011;9109;48.050;11.696;2022-10-31T14:45:59;29.80;;;5.30;;
17967;SDS011;9109;48.050;11.696;2022-10-31T14:49:16;18.58;;;5.95;;
17967;SDS011;9109;48.050;11.696;2022-10-31T14:52:28;26.27;;;7.10;;
17967;SDS011;9109;48.050;11.696;2022-10-31T14:55:30;17.05;;;5.70;;
17967;SDS011;9109;48.050;11.696;2022-10-31T14:58:35;17.75;;;5.80;;
17967;SDS011;9109;48.050;11.696;2022-10-31T15:01:39;13.00;;;;;
17967;SDS011;9109;48.050;11.696;2022-10-31T15:04:53;19.88;;;4.60;;
17967;SDS011;9109;48.050;11.696;2022-10-31T15:07:58;19.45;;;6.18;;
17967;SDS011;9109;48.050;11.696;2022-10-31T15:11:02;22.73;;;4.85;;
17967;SDS011;9109;48.050;11.696;2022-10-31T15:14:21;24.73;;;5.43;;
17967;SDS011;9109;48.050;11.696;2022-10-31T15:17:25;16.92;;;5.30;;
17967;SDS011;9109;48.050;11.696;2022-10-31T15:20:29;26.40;;;5.97;;
17967;SDS011;9109;48.050;11.696;2022-10-31T15:23:37;21.95;;;5.82;;
17967;SDS011;9109;48.050;11.696;2022-10-31T15:26:39;21.23;;;4.53;;
17967;SDS011;9109;48.050;11.696;2022-10-31T15:29:49;15.32;;;5.45;;
17967;SDS011;9109;48.050;11.696;2022-10-31T15:32:52;12.15;;;5.10;;
17967;SDS011;9109;48.050;11.696;2022-10-31T15:35:58;23.73;;;5.18;;
17967;SDS011;9109;48.050;11.696;2022-10-31T15:39:01;23.30;;;6.13;;
17967;SDS011;9109;48.050;11.696;2022-10-31T15:42:03;24.02;;;5.75;;
17967;SDS011;9109;48.050;11.696;2022-10-31T15:45:15;24.52;;;5.85;;
17967;SDS011;9109;48.050;11.696;2022-10-31T15:48:21;21.10;;;4.95;;
17967;SDS011;9109;48.050;11.696;2022-10-31T15:51:25;14.13;;;4.70;;
17967;SDS011;9109;48.050;11.696;2022-10-31T15:54:28;13.15;;;4.90;;
17967;SDS011;9109;48.050;11.696;2022-10-31T15:57:31;18.40;;;4.30;;
17967;SDS011;9109;48.050;11.696;2022-10-31T16:00:35;20.52;;;5.90;;
17967;SDS011;9109;48.050;11.696;2022-10-31T16:03:38;18.88;;;4.60;;
17967;SDS011;9109;48.050;11.696;2022-10-31T16:06:41;17.27;;;4.25;;
17967;SDS011;9109;48.050;11.696;2022-10-31T16:09:48;22.92;;;4.72;;
17967;SDS011;9109;48.050;11.696;2022-10-31T16:12:54;16.95;;;4.18;;
17967;SDS011;9109;48.050;11.696;2022-10-31T16:15:59;14.35;;;4.78;;
17967;SDS011;9109;48.050;11.696;2022-10-31T16:19:03;13.38;;;4.32;;
17967;SDS011;9109;48.050;11.696;2022-10-31T16:22:06;15.43;;;4.57;;
17967;SDS011;9109;48.050;11.696;2022-10-31T16:25:12;19.23;;;4.88;;
17967;SDS011;9109;48.050;11.696;2022-10-31T16:28:16;20.35;;;4.82;;
17967;SDS011;9109;48.050;11.696;2022-10-31T16:31:30;25.27;;;5.70;;
17967;SDS011;9109;48.050;11.696;2022-10-31T16:34:37;17.42;;;6.13;;
17967;SDS011;9109;48.050;11.696;2022-10-31T16:37:39;33.08;;;6.30;;
17967;SDS011;9109;48.050;11.696;2022-10-31T16:40:41;26.58;;;5.47;;
17967;SDS011;9109;48.050;11.696;2022-10-31T16:43:44;13.27;;;4.93;;
17967;SDS011;9109;48.050;11.696;2022-10-31T16:46:47;15.65;;;4.88;;
17967;SDS011;9109;48.050;11.696;2022-10-31T16:50:11;16.13;;;5.07;;
17967;SDS011;9109;48.050;11.696;2022-10-31T16:53:15;15.68;;;4.97;;
17967;SDS011;9109;48.050;11.696;2022-10-31T16:56:19;25.27;;;4.75;;
17967;SDS011;9109;48.050;11.696;2022-10-31T16:59:25;23.33;;;5.28;;
17967;SDS011;9109;48.050;11.696;2022-10-31T17:02:29;17.92;;;4.78;;
17967;SDS011;9109;48.050;11.696;2022-10-31T17:05:31;20.88;;;5.25;;
17967;SDS011;9109;48.050;11.696;2022-10-31T17:08:33;19.25;;;4.47;;
17967;SDS011;9109;48.050;11.696;2022-10-31T17:11:35;13.77;;;4.00;;
17967;SDS011;9109;48.050;11.696;2022-10-31T17:14:40;11.95;;;3.90;;
17967;SDS011;9109;48.050;11.696;2022-10-31T17:17:43;15.18;;;4.07;;
17967;SDS011;9109;48.050;11.696;2022-10-31T17:20:46;24.95;;;5.30;;
17967;SDS011;9109;48.050;11.696;2022-10-31T17:23:48;19.02;;;4.55;;
17967;SDS011;9109;48.050;11.696;2022-10-31T17:26:50;16.50;;;4.97;;
17967;SDS011;9109;48.050;11.696;2022-10-31T17:29:52;19.20;;;4.90;;
17967;SDS011;9109;48.050;11.696;2022-10-31T17:32:55;20.98;;;5.47;;
17967;SDS011;9109;48.050;11.696;2022-10-31T17:35:57;15.88;;;4.70;;
17967;SDS011;9109;48.050;11.696;2022-10-31T17:38:59;15.40;;;5.00;;
17967;SDS011;9109;48.050;11.696;2022-10-31T17:42:02;13.07;;;4.38;;
17967;SDS011;9109;48.050;11.696;2022-10-31T17:45:04;13.23;;;4.53;;
17967;SDS011;9109;48.050;11.696;2022-10-31T17:48:09;13.25;;;5.03;;
17967;SDS011;9109;48.050;11.696;2022-10-31T17:51:12;25.33;;;5.28;;
17967;SDS011;9109;48.050;11.696;2022-10-31T17:54:14;11.95;;;4.60;;
17967;SDS011;9109;48.050;11.696;2022-10-31T17:57:17;14.90;;;4.40;;
17967;SDS011;9109;48.050;11.696;2022-10-31T18:00:19;11.48;;;4.55;;
17967;SDS011;9109;48.050;11.696;2022-10-31T18:03:24;14.95;;;4.60;;
17967;SDS011;9109;48.050;11.696;2022-10-31T18:06:27;19.60;;;4.00;;
17967;SDS011;9109;48.050;11.696;2022-10-31T18:09:29;17.60;;;5.85;;
17967;SDS011;9109;48.050;11.696;2022-10-31T18:12:31;13.10;;;5.05;;
17967;SDS011;9109;48.050;11.696;2022-10-31T18:15:37;13.43;;;4.63;;
17967;SDS011;9109;48.050;11.696;2022-10-31T18:18:41;15.52;;;4.90;;
17967;SDS011;9109;48.050;11.696;2022-10-31T18:21:43;18.63;;;3.95;;
17967;SDS011;9109;48.050;11.696;2022-10-31T18:24:45;10.45;;;3.33;;
17967;SDS011;9109;48.050;11.696;2022-10-31T18:27:47;7.68;;;3.60;;
17967;SDS011;9109;48.050;11.696;2022-10-31T18:30:49;11.05;;;3.70;;
17967;SDS011;9109;48.050;11.696;2022-10-31T18:33:53;12.05;;;3.53;;
17967;SDS011;9109;48.050;11.696;2022-10-31T18:36:56;17.77;;;4.28;;
17967;SDS011;9109;48.050;11.696;2022-10-31T18:39:58;13.98;;;4.57;;
17967;SDS011;9109;48.050;11.696;2022-10-31T18:43:00;10.18;;;3.95;;
17967;SDS011;9109;48.050;11.696;2022-10-31T18:46:05;16.17;;;4.80;;
17967;SDS011;9109;48.050;11.696;2022-10-31T18:49:10;12.52;;;3.90;;
17967;SDS011;9109;48.050;11.696;2022-10-31T18:52:12;21.67;;;5.65;;
17967;SDS011;9109;48.050;11.696;2022-10-31T18:55:14;13.50;;;4.70;;
17967;SDS011;9109;48.050;11.696;2022-10-31T18:58:16;13.00;;;4.93;;
17967;SDS011;9109;48.050;11.696;2022-10-31T19:01:19;13.45;;;4.50;;
17967;SDS011;9109;48.050;11.696;2022-10-31T19:04:23;17.65;;;5.30;;
17967;SDS011;9109;48.050;11.696;2022-10-31T19:07:25;14.25;;;5.18;;
17967;SDS011;9109;48.050;11.696;2022-10-31T19:10:27;12.55;;;5.75;;
17967;SDS011;9109;48.050;11.696;2022-10-31T19:13:30;15.07;;;5.18;;
17967;SDS011;9109;48.050;11.696;2022-10-31T19:16:32;23.05;;;6.07;;
17967;SDS011;9109;48.050;11.696;2022-10-31T19:19:36;17.63;;;6.53;;
17967;SDS011;9109;48.050;11.696;2022-10-31T19:22:38;14.57;;;5.28;;
17967;SDS011;9109;48.050;11.696;2022-10-31T19:25:40;12.65;;;5.60;;
17967;SDS011;9109;48.050;11.696;2022-10-31T19:28:42;15.30;;;6.30;;
17967;SDS011;9109;48.050;11.696;2022-10-31T19:31:44;17.55;;;5.55;;
17967;SDS011;9109;48.050;11.696;2022-10-31T19:34:48;12.15;;;4.43;;
17967;SDS011;9109;48.050;11.696;2022-10-31T19:37:50;9.23;;;4.00;;
17967;SDS011;9109;48.050;11.696;2022-10-31T19:40:54;13.40;;;4.50;;
17967;SDS011;9109;48.050;11.696;2022-10-31T19:43:58;12.35;;;4.95;;
17967;SDS011;9109;48.050;11.696;2022-10-31T19:47:00;13.30;;;4.85;;
17967;SDS011;9109;48.050;11.696;2022-10-31T19:50:04;12.23;;;4.90;;
17967;SDS011;9109;48.050;11.696;2022-10-31T19:53:06;10.68;;;4.93;;
17967;SDS011;9109;48.050;11.696;2022-10-31T19:56:12;17.58;;;4.75;;
17967;SDS011;9109;48.050;11.696;2022-10-31T19:59:17;22.80;;;6.15;;
17967;SDS011;9109;48.050;11.696;2022-10-31T20:02:19;11.23;;;4.47;;
17967;SDS011;9109;48.050;11.696;2022-10-31T20:05:22;17.38;;;4.70;;
17967;SDS011;9109;48.050;11.696;2022-10-31T20:08:24;12.88;;;4.28;;
17967;SDS011;9109;48.050;11.696;2022-10-31T20:11:27;23.40;;;4.25;;
17967;SDS011;9109;48.050;11.696;2022-10-31T20:14:29;13.88;;;4.40;;
17967;SDS011;9109;48.050;11.696;2022-10-31T20:17:31;17.58;;;4.53;;
17967;SDS011;9109;48.050;11.696;2022-10-31T20:20:35;9.85;;;4.20;;
17967;SDS011;9109;48.050;11.696;2022-10-31T20:23:37;10.10;;;4.63;;
17967;SDS011;9109;48.050;11.696;2022-10-31T20:26:39;11.10;;;5.13;;
17967;SDS011;9109;48.050;11.696;2022-10-31T20:29:42;15.15;;;5.60;;
17967;SDS011;9109;48.050;11.696;2022-10-31T20:36:17;13.82;;;5.80;;
17967;SDS011;9109;48.050;11.696;2022-10-31T20:39:33;16.33;;;5.60;;
17967;SDS011;9109;48.050;11.696;2022-10-31T20:42:38;22.17;;;5.90;;
17967;SDS011;9109;48.050;11.696;2022-10-31T20:45:45;16.65;;;5.97;;
17967;SDS011;9109;48.050;11.696;2022-10-31T20:48:51;12.73;;;5.75;;
17967;SDS011;9109;48.050;11.696;2022-10-31T20:52:08;19.02;;;6.85;;
17967;SDS011;9109;48.050;11.696;2022-10-31T20:55:17;16.60;;;6.13;;
17967;SDS011;9109;48.050;11.696;2022-10-31T20:58:31;15.35;;;5.45;;
17967;SDS011;9109;48.050;11.696;2022-10-31T21:01:38;13.55;;;5.35;;
17967;SDS011;9109;48.050;11.696;2022-10-31T21:04:40;13.30;;;5.07;;
17967;SDS011;9109;48.050;11.696;2022-10-31T21:07:50;17.10;;;5.43;;
17967;SDS011;9109;48.050;11.696;2022-10-31T21:11:08;12.63;;;5.20;;
17967;SDS011;9109;48.050;11.696;2022-10-31T21:14:27;12.82;;;4.88;;
17967;SDS011;9109;48.050;11.696;2022-10-31T21:17:39;18.63;;;5.25;;
17967;SDS011;9109;48.050;11.696;2022-10-31T21:20:50;12.10;;;5.30;;
17967;SDS011;9109;48.050;11.696;2022-10-31T21:24:04;10.80;;;4.68;;
17967;SDS011;9109;48.050;11.696;2022-10-31T21:27:11;7.95;;;4.43;;
17967;SDS011;9109;48.050;11.696;2022-10-31T21:30:14;10.90;;;4.23;;
17967;SDS011;9109;48.050;11.696;2022-10-31T21:33:21;16.52;;;4.00;;
17967;SDS011;9109;48.050;11.696;2022-10-31T21:36:39;12.68;;;4.57;;
17967;SDS011;9109;48.050;11.696;2022-10-31T21:39:56;16.57;;;5.43;;
17967;SDS011;9109;48.050;11.696;2022-10-31T21:43:09;22.50;;;5.72;;
17967;SDS011;9109;48.050;11.696;2022-10-31T21:46:28;15.57;;;5.57;;
17967;SDS011;9109;48.050;11.696;2022-10-31T21:49:42;13.57;;;5.80;;
17967;SDS011;9109;48.050;11.696;2022-10-31T21:53:06;12.82;;;5.88;;
17967;SDS011;9109;48.050;11.696;2022-10-31T21:56:26;12.75;;;6.00;;
17967;SDS011;9109;48.050;11.696;2022-10-31T21:59:52;10.47;;;5.43;;
17967;SDS011;9109;48.050;11.696;2022-10-31T22:03:11;14.33;;;5.90;;
17967;SDS011;9109;48.050;11.696;2022-10-31T22:06:27;11.63;;;5.60;;
17967;SDS011;9109;48.050;11.696;2022-10-31T22:09:38;10.47;;;5.10;;
17967;SDS011;9109;48.050;11.696;2022-10-31T22:16:19;18.83;;;6.28;;
17967;SDS011;9109;48.050;11.696;2022-10-31T22:19:54;14.73;;;6.17;;
17967;SDS011;9109;48.050;11.696;2022-10-31T22:23:13;13.20;;;5.37;;
17967;SDS011;9109;48.050;11.696;2022-10-31T22:26:30;11.97;;;5.70;;
17967;SDS011;9109;48.050;11.696;2022-10-31T22:29:43;13.23;;;5.03;;
17967;SDS011;9109;48.050;11.696;2022-10-31T22:33:00;16.08;;;5.35;;
17967;SDS011;9109;48.050;11.696;2022-10-31T22:36:21;18.27;;;5.27;;
17967;SDS011;9109;48.050;11.696;2022-10-31T22:39:25;15.07;;;5.73;;
17967;SDS011;9109;48.050;11.696;2022-10-31T22:42:36;12.43;;;5.33;;
17967;SDS011;9109;48.050;11.696;2022-10-31T22:45:54;11.47;;;5.90;;
17967;SDS011;9109;48.050;11.696;2022-10-31T22:49:05;11.47;;;5.07;;
17967;SDS011;9109;48.050;11.696;2022-10-31T22:52:13;10.43;;;5.33;;
17967;SDS011;9109;48.050;11.696;2022-10-31T22:55:30;17.00;;;4.67;;
17967;SDS011;9109;48.050;11.696;2022-10-31T22:58:41;13.73;;;4.30;;
17967;SDS011;9109;48.050;11.696;2022-10-31T23:02:01;11.90;;;4.97;;
17967;SDS011;9109;48.050;11.696;2022-10-31T23:05:10;16.10;;;4.45;;
17967;SDS011;9109;48.050;11.696;2022-10-31T23:08:21;14.57;;;5.57;;
17967;SDS011;9109;48.050;11.696;2022-10-31T23:11:38;15.77;;;4.60;;
17967;SDS011;9109;48.050;11.696;2022-10-31T23:14:54;12.68;;;4.28;;
17967;SDS011;9109;48.050;11.696;2022-10-31T23:18:21;11.50;;;4.77;;
17967;SDS011;9109;48.050;11.696;2022-10-31T23:21:29;9.13;;;3.97;;
17967;SDS011;9109;48.050;11.696;2022-10-31T23:24:48;12.60;;;4.10;;
17967;SDS011;9109;48.050;11.696;2022-10-31T23:27:55;15.47;;;4.03;;
17967;SDS011;9109;48.050;11.696;2022-10-31T23:30:59;20.23;;;3.80;;
17967;SDS011;9109;48.050;11.696;2022-10-31T23:34:12;13.50;;;4.77;;
17967;SDS011;9109;48.050;11.696;2022-10-31T23:37:19;12.87;;;3.83;;
17967;SDS011;9109;48.050;11.696;2022-10-31T23:40:26;11.37;;;4.30;;
17967;SDS011;9109;48.050;11.696;2022-10-31T23:43:35;8.85;;;3.63;;
17967;SDS011;9109;48.050;11.696;2022-10-31T23:46:54;10.70;;;4.33;;